createdAt,value
2022-12-07T08:28:26.753Z,14.32
2022-12-07T08:31:01.206Z,13.98
2022-12-07T08:33:28.918Z,17.77
2022-12-07T08:36:02.029Z,18.05
2022-12-07T08:38:31.899Z,16.20
2022-12-07T08:41:00.648Z,16.42
2022-12-07T08:43:28.432Z,19.20
2022-12-07T08:46:39.316Z,17.48
2022-12-07T08:49:33.698Z,18.40
2022-12-07T08:52:01.184Z,20.42
2022-12-07T08:54:29.998Z,19.08
2022-12-07T08:56:59.763Z,22.25
2022-12-07T08:59:29.265Z,20.40
2022-12-07T09:01:56.815Z,19.88
2022-12-07T09:04:24.247Z,19.60
2022-12-07T09:06:51.974Z,19.90
2022-12-07T09:09:19.414Z,23.73
2022-12-07T09:11:57.948Z,23.17
2022-12-07T09:14:26.151Z,21.08
2022-12-07T09:16:53.496Z,23.45
2022-12-07T09:19:21.075Z,29.10
2022-12-07T09:21:48.509Z,29.88
2022-12-07T09:24:15.954Z,26.67
2022-12-07T09:26:43.326Z,30.88
2022-12-07T09:29:10.681Z,29.70
2022-12-07T09:31:39.483Z,30.38
2022-12-07T09:34:07.320Z,28.20
2022-12-07T09:36:35.637Z,27.73
2022-12-07T09:39:05.611Z,23.67
2022-12-07T09:41:34.060Z,25.00
2022-12-07T09:44:18.113Z,23.33
2022-12-07T09:46:47.094Z,26.13
2022-12-07T09:49:23.175Z,22.98
2022-12-07T09:52:13.805Z,23.20
2022-12-07T09:54:51.675Z,26.27
2022-12-07T09:57:33.086Z,23.90
2022-12-07T10:00:16.541Z,24.90
2022-12-07T10:02:58.286Z,24.40
2022-12-07T10:05:45.797Z,27.38
2022-12-07T10:08:14.977Z,32.22
2022-12-07T10:10:42.968Z,30.38
2022-12-07T10:13:22.541Z,26.92
2022-12-07T10:16:05.185Z,29.80
2022-12-07T10:18:45.430Z,26.08
2022-12-07T10:21:25.163Z,25.25
2022-12-07T10:24:11.358Z,24.23
2022-12-07T10:26:54.670Z,22.70
2022-12-07T10:29:40.394Z,22.63
2022-12-07T10:32:36.301Z,21.90
2022-12-07T10:35:30.281Z,25.55
2022-12-07T10:38:01.041Z,25.88
2022-12-07T10:40:38.748Z,25.63
2022-12-07T10:43:20.702Z,23.40
2022-12-07T10:47:00.679Z,20.80
2022-12-07T10:49:50.214Z,25.42
2022-12-07T10:53:16.586Z,20.48
2022-12-07T10:56:56.978Z,19.42
2022-12-07T11:00:04.002Z,18.65
2022-12-07T11:04:25.574Z,19.52
2022-12-07T11:10:19.414Z,21.10
2022-12-07T11:14:26.333Z,18.15
2022-12-07T11:18:20.044Z,20.80
2022-12-07T11:21:43.743Z,18.67
2022-12-07T11:24:49.844Z,19.70
2022-12-07T11:27:47.665Z,16.92
2022-12-07T11:30:26.170Z,18.13
2022-12-07T11:33:26.976Z,20.45
2022-12-07T11:36:37.742Z,18.55
2022-12-07T11:39:43.487Z,16.98
2022-12-07T11:42:38.031Z,15.77
2022-12-07T11:45:27.956Z,14.98
2022-12-07T11:48:23.610Z,16.30
2022-12-07T11:50:58.171Z,20.23
2022-12-07T11:53:50.490Z,15.50
2022-12-07T11:56:23.827Z,14.38
2022-12-07T11:59:21.918Z,17.08
2022-12-07T12:02:32.846Z,15.95
2022-12-07T12:05:24.976Z,13.85
2022-12-07T12:16:22.185Z,14.90
2022-12-07T12:19:23.659Z,14.50
2022-12-07T12:22:18.403Z,14.18
2022-12-07T12:24:53.134Z,14.45
2022-12-07T12:27:37.205Z,14.60
2022-12-07T12:30:39.078Z,14.93
2022-12-07T12:33:32.053Z,13.63
2022-12-07T12:36:22.185Z,13.30
2022-12-07T12:38:59.899Z,14.70
2022-12-07T12:41:39.126Z,14.13
2022-12-07T12:44:19.538Z,13.75
2022-12-07T12:46:59.427Z,15.93
2022-12-07T12:49:26.542Z,15.73
2022-12-07T12:52:39.775Z,13.50
2022-12-07T12:55:10.032Z,12.85
2022-12-07T12:57:38.421Z,11.93
2022-12-07T13:00:23.333Z,14.40
2022-12-07T13:02:57.526Z,12.32
2022-12-07T13:05:32.205Z,12.85
2022-12-07T13:08:27.050Z,15.75
2022-12-07T13:11:40.705Z,12.68
2022-12-07T13:14:41.713Z,14.82
2022-12-07T13:17:33.828Z,13.88
2022-12-07T13:20:12.776Z,14.93
2022-12-07T13:22:50.340Z,12.45
2022-12-07T13:25:37.388Z,13.38
2022-12-07T13:28:22.730Z,14.93
2022-12-07T13:31:34.697Z,14.40
2022-12-07T13:34:33.670Z,13.90
2022-12-07T13:37:36.710Z,13.45
2022-12-07T13:40:23.859Z,12.93
2022-12-07T13:43:13.818Z,12.65
2022-12-07T13:45:52.550Z,14.00
2022-12-07T13:48:48.844Z,16.20
2022-12-07T13:51:35.069Z,13.45
2022-12-07T13:54:12.691Z,14.77
2022-12-07T13:56:41.027Z,15.70
2022-12-07T13:59:26.194Z,12.38
2022-12-07T14:01:54.911Z,13.90
2022-12-07T14:04:39.278Z,15.60
2022-12-07T14:07:28.841Z,12.45
2022-12-07T14:10:49.402Z,14.65
2022-12-07T14:13:51.035Z,15.63
2022-12-07T14:16:38.052Z,16.08
2022-12-07T14:19:48.679Z,14.43
2022-12-07T14:22:39.235Z,13.45
2022-12-07T14:25:19.179Z,17.38
2022-12-07T14:27:59.346Z,13.75
2022-12-07T14:30:35.254Z,12.80
2022-12-07T14:33:06.648Z,12.55
2022-12-07T14:35:34.380Z,14.80
2022-12-07T14:38:01.715Z,13.88
2022-12-07T14:40:31.163Z,13.77
2022-12-07T14:43:13.997Z,11.52
2022-12-07T14:45:42.685Z,12.73
2022-12-07T14:53:57.305Z,14.85
2022-12-07T14:56:26.607Z,13.38
2022-12-07T14:58:53.971Z,11.48
2022-12-07T15:01:21.442Z,14.68
2022-12-07T15:03:48.925Z,15.30
2022-12-07T15:06:19.822Z,13.93
2022-12-07T15:08:47.737Z,12.23
2022-12-07T15:11:18.216Z,14.15
2022-12-07T15:14:04.201Z,15.77
2022-12-07T15:16:52.566Z,11.77
2022-12-07T15:19:28.960Z,10.75
2022-12-07T15:22:01.062Z,12.45
2022-12-07T15:24:28.711Z,12.30
2022-12-07T15:26:56.085Z,13.18
2022-12-07T15:29:24.147Z,11.68
2022-12-07T15:31:57.050Z,13.32
2022-12-07T15:34:33.487Z,12.55
2022-12-07T15:37:05.732Z,13.68
2022-12-07T15:39:33.376Z,12.93
2022-12-07T15:42:00.780Z,14.10
2022-12-07T15:44:46.617Z,13.98
2022-12-07T15:47:14.047Z,13.05
2022-12-07T15:49:41.753Z,12.65
2022-12-07T15:52:09.159Z,12.15
2022-12-07T15:54:36.532Z,11.20
2022-12-07T15:57:04.063Z,11.38
2022-12-07T15:59:31.587Z,11.63
2022-12-07T16:01:59.960Z,14.35
2022-12-07T16:04:30.534Z,11.65
2022-12-07T16:06:58.507Z,12.55
2022-12-07T16:09:26.393Z,11.82
2022-12-07T16:11:53.876Z,14.07
2022-12-07T16:14:21.682Z,14.43
2022-12-07T16:16:49.883Z,11.88
2022-12-07T16:19:17.245Z,12.57
2022-12-07T16:21:44.861Z,11.85
2022-12-07T16:24:13.668Z,10.88
2022-12-07T16:26:46.296Z,11.88
2022-12-07T16:29:20.037Z,12.02
2022-12-07T16:31:49.397Z,12.93
2022-12-07T16:34:16.953Z,12.40
2022-12-07T16:39:34.324Z,11.82
2022-12-07T16:42:02.135Z,12.23
2022-12-07T16:44:29.634Z,10.30
2022-12-07T16:46:57.194Z,11.52
2022-12-07T16:49:25.202Z,14.20
2022-12-07T16:52:14.791Z,10.43
2022-12-07T16:54:40.871Z,13.23
2022-12-07T16:57:08.255Z,16.15
2022-12-07T16:59:35.634Z,17.13
2022-12-07T17:02:03.207Z,15.65
2022-12-07T17:04:31.011Z,17.98
2022-12-07T17:06:59.426Z,17.45
2022-12-07T17:09:27.120Z,13.23
2022-12-07T17:11:54.457Z,15.70
2022-12-07T17:14:40.332Z,16.30
2022-12-07T17:17:07.778Z,15.38
2022-12-07T17:19:35.248Z,13.63
2022-12-07T17:22:02.674Z,17.25
2022-12-07T17:24:30.157Z,14.93
2022-12-07T17:26:57.512Z,14.70
2022-12-07T17:29:24.891Z,17.98
2022-12-07T17:31:52.373Z,16.88
2022-12-07T17:34:19.974Z,13.75
2022-12-07T17:36:47.995Z,16.25
2022-12-07T17:39:19.510Z,14.00
2022-12-07T17:42:06.786Z,14.20
2022-12-07T17:44:34.222Z,17.02
2022-12-07T17:47:03.924Z,18.90
2022-12-07T17:49:31.901Z,16.33
2022-12-07T17:52:17.734Z,18.77
2022-12-07T17:54:45.198Z,18.10
2022-12-07T17:57:12.647Z,17.67
2022-12-07T17:59:40.067Z,20.08
2022-12-07T18:02:08.796Z,18.80
2022-12-07T18:04:36.213Z,19.23
2022-12-07T18:07:06.730Z,19.20
2022-12-07T18:09:34.066Z,20.67
2022-12-07T18:12:02.600Z,15.68
2022-12-07T18:14:30.038Z,17.85
2022-12-07T18:16:57.517Z,18.00
2022-12-07T18:19:25.122Z,17.83
2022-12-07T18:21:52.507Z,18.75
2022-12-07T18:24:20.002Z,17.25
2022-12-07T18:26:48.235Z,18.98
2022-12-07T18:29:18.578Z,15.02
2022-12-07T18:31:47.724Z,16.50
2022-12-07T18:34:19.038Z,18.52
2022-12-07T18:36:53.206Z,17.02
2022-12-07T18:39:20.917Z,17.08
2022-12-07T18:41:49.043Z,19.70
2022-12-07T18:44:18.614Z,15.93
2022-12-07T18:46:46.462Z,16.80
2022-12-07T18:49:15.670Z,18.38
2022-12-07T18:51:45.248Z,16.80
2022-12-07T18:54:12.678Z,18.35
2022-12-07T18:56:40.180Z,16.33
2022-12-07T18:59:26.774Z,17.40
2022-12-07T19:01:55.267Z,19.60
2022-12-07T19:04:23.322Z,16.70
2022-12-07T19:06:51.621Z,17.05
2022-12-07T19:09:20.044Z,15.57
2022-12-07T19:11:51.173Z,16.25
2022-12-07T19:14:23.966Z,17.48
2022-12-07T19:16:59.440Z,16.60
2022-12-07T19:19:40.059Z,17.38
2022-12-07T19:22:13.117Z,17.98
2022-12-07T19:24:40.877Z,15.93
2022-12-07T19:27:09.357Z,15.13
2022-12-07T19:29:36.710Z,15.40
2022-12-07T19:32:08.704Z,15.20
2022-12-07T19:34:43.365Z,17.15
2022-12-07T19:37:12.896Z,16.70
2022-12-07T19:39:43.789Z,15.20
2022-12-07T19:42:12.397Z,15.35
2022-12-07T19:44:39.842Z,15.88
2022-12-07T19:47:07.326Z,16.70
2022-12-07T19:49:36.708Z,13.38
2022-12-07T19:52:09.246Z,16.35
2022-12-07T19:54:37.476Z,16.00
2022-12-07T19:57:07.573Z,14.48
2022-12-07T19:59:35.395Z,16.58
2022-12-07T20:02:02.860Z,15.48
2022-12-07T20:04:35.613Z,15.65
2022-12-07T20:07:03.615Z,17.95
2022-12-07T20:09:31.047Z,17.27
2022-12-07T20:12:17.072Z,17.85
2022-12-07T20:14:44.386Z,16.38
2022-12-07T20:17:11.874Z,14.18
2022-12-07T20:19:40.464Z,15.77
2022-12-07T20:22:08.839Z,14.35
2022-12-07T20:24:36.535Z,15.90
2022-12-07T20:27:05.259Z,16.10
2022-12-07T20:29:32.904Z,16.67
2022-12-07T20:32:00.375Z,15.77
2022-12-07T20:34:27.802Z,16.45
2022-12-07T20:36:56.032Z,16.15
2022-12-07T20:39:24.210Z,17.05
2022-12-07T20:42:10.463Z,14.20
2022-12-07T20:44:38.217Z,16.25
2022-12-07T20:47:07.034Z,15.02
2022-12-07T20:49:34.835Z,16.95
2022-12-07T20:52:02.766Z,17.05
2022-12-07T20:54:30.282Z,18.05
2022-12-07T20:56:57.746Z,17.60
2022-12-07T20:59:25.195Z,18.00
2022-12-07T21:01:53.349Z,19.23
2022-12-07T21:04:20.853Z,21.13
2022-12-07T21:06:48.384Z,17.20
2022-12-07T21:09:15.700Z,17.23
2022-12-07T21:11:43.095Z,19.45
2022-12-07T21:14:10.572Z,17.67
2022-12-07T21:16:38.004Z,15.02
2022-12-07T21:19:06.070Z,17.67
2022-12-07T21:21:34.781Z,17.65
2022-12-07T21:24:05.221Z,19.30
2022-12-07T21:26:36.118Z,18.05
2022-12-07T21:29:07.270Z,17.98
2022-12-07T21:31:35.668Z,17.80
2022-12-07T21:34:08.101Z,16.30
2022-12-07T21:36:36.425Z,16.30
2022-12-07T21:39:05.310Z,17.83
2022-12-07T21:41:35.844Z,18.58
2022-12-07T21:46:35.072Z,16.48
2022-12-07T21:49:10.989Z,14.43
2022-12-07T21:51:40.738Z,17.60
2022-12-07T21:54:08.843Z,15.45
2022-12-07T21:56:42.112Z,14.50
2022-12-07T21:59:15.855Z,17.30
2022-12-07T22:01:47.443Z,17.70
2022-12-07T22:04:20.824Z,17.15
2022-12-07T22:06:49.372Z,16.25
2022-12-07T22:09:18.953Z,17.20
2022-12-07T22:11:47.081Z,17.63
2022-12-07T22:14:32.915Z,14.85
2022-12-07T22:17:00.418Z,15.70
2022-12-07T22:19:27.967Z,17.33
2022-12-07T22:21:55.387Z,17.30
2022-12-07T22:24:22.809Z,16.10
2022-12-07T22:26:50.102Z,16.30
2022-12-07T22:29:17.654Z,19.90
2022-12-07T22:31:47.930Z,13.23
2022-12-07T22:34:19.562Z,17.50
2022-12-07T22:36:46.954Z,15.20
2022-12-07T22:39:14.464Z,15.70
